CheckWX is a tool to help pilots better visualize weather data.  It is not intended as a substitute for an official pre-flight weather briefing.

07:17:55 UTC

LLSD TAF
Sde Dov Airport
Tel Aviv, Israel
TAF LLSD 160504Z 1606/1706 VRB03KT CAVOK BECMG 1607/1609 27010KT BECMG 1615/1617 36006KT BECMG 1619/1621 VRB04KT BECMG 1623/1701 9999 SCT020 TX27/1611Z TN24/1703Z

Jun-16@
06:00 UTC

Jun-16 @ 06:00 UTC

Jun-16@
07:00 UTC

Jun-16 @ 07:00 UTC

TAF LLSD 160504Z 1606/1706 VRB03KT CAVOK

Expired

Wind
  • Variable at 3 KTS
Conditions
No significant weather
Cloud Levels
  • No significant clouds

Jun-16@
07:00 UTC

Jun-16 @ 07:00 UTC

Jun-16@
15:00 UTC

Jun-16 @ 15:00 UTC

BECMG 1607/1609 27010KT

Becoming

Becoming Conditions expected by Sun, Jun 16, 2019 @ 09:00 UTC

Wind
  • 270° at 10 KTS
Conditions
No significant weather
Cloud Levels
  • No significant clouds

Jun-16@
15:00 UTC

Jun-16 @ 15:00 UTC

Jun-16@
19:00 UTC

Jun-16 @ 19:00 UTC

BECMG 1615/1617 36006KT

Becoming

Becoming Conditions expected by Sun, Jun 16, 2019 @ 17:00 UTC

Wind
  • 360° at 6 KTS
Conditions
No significant weather
Cloud Levels
  • No significant clouds

Jun-16@
19:00 UTC

Jun-16 @ 19:00 UTC

Jun-16@
23:00 UTC

Jun-16 @ 23:00 UTC

BECMG 1619/1621 VRB04KT

Becoming

Becoming Conditions expected by Sun, Jun 16, 2019 @ 21:00 UTC

Wind
  • Variable at 4 KTS
Conditions
No significant weather
Cloud Levels
  • No significant clouds

Jun-16@
23:00 UTC

Jun-16 @ 23:00 UTC

Jun-17@
06:00 UTC

Jun-17 @ 06:00 UTC

BECMG 1623/1701 9999 SCT020 TX27/1611Z TN24/1703Z

Becoming

Becoming Conditions expected by Mon, Jun 17, 2019 @ 01:00 UTC

Wind
  • Variable at 4 KTS
Conditions
No significant weather
Cloud Levels
  • Scattered at 2,000' AGL